Time;durP1;ratioP1;P1;durP2;ratioP2;P2;SDS_P1;SDS_P2;PMS_P1;PMS_P2;Temp;Humidity;BMP_temperature;BMP_pressure;BME280_temperature;BME280_humidity;BME280_pressure;Samples;Min_cycle;Max_cycle;Signal;HPM_P1;HPM_P2
2023/01/25 00:02:11;;;;;;;3.77;2.33;;;;;;;20.75;34.06;96114.53;6086792;28;109876;-65
2023/01/25 00:05:22;;;;;;;2.90;2.70;;;;;;;20.76;33.83;96110.78;6090569;28;108907;-65
2023/01/25 00:08:27;;;;;;;2.50;2.30;;;;;;;20.77;33.85;96115.03;6089497;28;109040;-65
2023/01/25 00:11:31;;;;;;;2.63;2.43;;;;;;;20.67;33.87;96107.13;6079825;28;110223;-65
2023/01/25 00:14:36;;;;;;;2.47;2.27;;;;;;;20.78;34.03;96115.84;6090544;28;110091;-65
2023/01/25 00:17:39;;;;;;;2.73;2.53;;;;;;;20.76;34.00;96110.78;6088012;28;109132;-65
2023/01/25 00:20:44;;;;;;;2.20;2.10;;;;;;;20.80;33.80;96111.03;6083660;28;110161;-64
2023/01/25 00:23:47;;;;;;;2.83;2.63;;;;;;;20.79;33.88;96114.78;6072460;28;109447;-64
2023/01/25 00:26:51;;;;;;;2.30;2.10;;;;;;;20.68;34.27;96095.41;6087786;28;109041;-65
2023/01/25 00:29:55;;;;;;;2.30;2.10;;;;;;;20.76;34.16;96115.31;6090429;28;109226;-65
2023/01/25 00:33:06;;;;;;;2.43;2.23;;;;;;;20.75;34.06;96106.53;6079926;28;109062;-65
2023/01/25 00:36:33;;;;;;;2.73;2.50;;;;;;;20.76;34.03;96110.00;6090006;28;109133;-65
2023/01/25 00:39:38;;;;;;;2.87;2.40;;;;;;;20.66;34.34;96094.84;6071214;28;110157;-64
2023/01/25 00:42:43;;;;;;;3.23;2.37;;;;;;;20.77;34.00;96111.59;6088853;28;109270;-65
2023/01/25 00:45:46;;;;;;;2.50;2.30;;;;;;;20.75;34.36;96109.19;6079326;28;112578;-65
2023/01/25 00:48:54;;;;;;;2.70;2.50;;;;;;;20.75;34.46;96114.53;6090229;28;110040;-65
2023/01/25 00:51:58;;;;;;;3.60;2.40;;;;;;;20.74;34.17;96109.47;6074188;28;109375;-65
2023/01/25 00:55:01;;;;;;;2.50;2.30;;;;;;;20.75;34.18;96114.53;6082441;28;109192;-65
2023/01/25 00:58:05;;;;;;;2.30;2.10;;;;;;;20.74;34.13;96110.28;6084399;28;109554;-65
2023/01/25 01:01:08;;;;;;;2.17;1.97;;;;;;;20.70;34.30;96100.44;6089211;28;109162;-65
2023/01/25 01:04:12;;;;;;;2.33;1.90;;;;;;;20.67;33.99;96108.94;6089471;28;109028;-66
2023/01/25 01:07:15;;;;;;;2.80;2.20;;;;;;;20.72;34.19;96117.72;6078774;28;110474;-65
2023/01/25 01:10:19;;;;;;;2.33;2.13;;;;;;;20.72;34.17;96107.09;6087821;28;108835;-65
2023/01/25 01:13:23;;;;;;;2.57;2.37;;;;;;;20.64;34.04;96097.00;6066082;28;108835;-65
2023/01/25 01:16:27;;;;;;;2.13;1.93;;;;;;;20.66;34.42;96100.16;6087302;28;109255;-65
2023/01/25 01:19:30;;;;;;;2.50;2.30;;;;;;;20.72;34.01;96115.06;6078076;28;110413;-65
2023/01/25 01:22:33;;;;;;;2.20;2.00;;;;;;;20.69;34.08;96104.97;6076495;28;109268;-65
2023/01/25 01:25:38;;;;;;;2.50;2.33;;;;;;;20.71;33.96;96107.38;6085207;28;110559;-64
2023/01/25 01:28:43;;;;;;;2.33;2.10;;;;;;;20.71;34.04;96107.38;6089100;28;109241;-65
2023/01/25 01:31:46;;;;;;;2.27;2.00;;;;;;;20.70;34.03;96105.78;6079510;28;110069;-65
2023/01/25 01:34:49;;;;;;;2.43;2.23;;;;;;;20.70;33.94;96100.44;6088258;28;109112;-66
2023/01/25 01:37:52;;;;;;;2.10;1.90;;;;;;;20.69;34.07;96099.66;6089038;28;110271;-65
2023/01/25 01:40:57;;;;;;;2.33;1.80;;;;;;;20.57;33.99;96083.19;6078080;28;111273;-64
2023/01/25 01:44:02;;;;;;;2.07;1.97;;;;;;;20.70;33.91;96090.59;6088076;28;112298;-65
2023/01/25 01:47:05;;;;;;;2.10;1.90;;;;;;;20.69;33.82;96082.91;6088968;28;109238;-65
2023/01/25 01:50:18;;;;;;;1.97;1.87;;;;;;;20.67;33.80;96080.50;6084550;28;110095;-65
2023/01/25 01:53:26;;;;;;;2.43;1.90;;;;;;;20.71;33.93;96088.75;6058025;28;109911;-66
2023/01/25 01:56:34;;;;;;;1.70;1.60;;;;;;;20.65;33.99;96082.63;6083651;28;109264;-66
2023/01/25 01:59:44;;;;;;;2.17;1.97;;;;;;;20.69;33.98;96091.69;6088761;28;108794;-65
2023/01/25 02:02:49;;;;;;;2.30;2.10;;;;;;;20.56;33.89;96078.94;6088832;28;109772;-65
2023/01/25 02:06:00;;;;;;;1.90;1.60;;;;;;;20.51;33.72;96063.00;6079219;28;109374;-65
2023/01/25 02:09:05;;;;;;;2.13;1.93;;;;;;;20.52;33.92;96057.41;6078421;28;109198;-65
2023/01/25 02:12:10;;;;;;;1.93;1.83;;;;;;;20.66;33.61;96084.22;6086880;28;109299;-65
2023/01/25 02:15:17;;;;;;;2.30;2.10;;;;;;;20.66;33.80;96081.56;6079250;28;109112;-64
2023/01/25 02:18:20;;;;;;;1.70;1.60;;;;;;;20.66;33.75;96080.75;6087761;28;110203;-65
2023/01/25 02:21:24;;;;;;;1.60;1.50;;;;;;;20.67;33.72;96085.84;6088229;28;109074;-65
2023/01/25 02:24:32;;;;;;;1.70;1.60;;;;;;;20.66;33.92;96091.41;6083878;28;111719;-65
2023/01/25 02:27:41;;;;;;;1.40;1.30;;;;;;;20.65;33.88;96095.91;6061392;28;110132;-66
2023/01/25 02:30:45;;;;;;;1.60;1.50;;;;;;;20.65;33.53;96087.94;6081089;28;110151;-65
2023/01/25 02:33:48;;;;;;;1.60;1.50;;;;;;;20.65;33.87;96079.16;6087162;28;109038;-65
2023/01/25 02:36:51;;;;;;;1.67;1.57;;;;;;;20.63;33.75;96082.09;6088006;28;109446;-66
2023/01/25 02:39:54;;;;;;;1.77;1.67;;;;;;;20.60;33.69;96083.44;6078037;28;111142;-65
2023/01/25 02:42:59;;;;;;;1.60;1.50;;;;;;;20.65;33.58;96081.81;6087385;28;109540;-65
2023/01/25 02:46:11;;;;;;;1.47;1.37;;;;;;;20.65;33.70;96077.31;6088260;28;110098;-62
2023/01/25 02:49:18;;;;;;;1.60;1.50;;;;;;;20.63;33.75;96076.78;6060735;28;110486;-62
2023/01/25 02:52:21;;;;;;;1.70;1.60;;;;;;;20.63;33.57;96074.91;6079291;28;110155;-61
2023/01/25 02:55:24;;;;;;;1.73;1.63;;;;;;;20.64;33.46;96075.72;6070415;28;109002;-61
2023/01/25 02:58:28;;;;;;;1.50;1.40;;;;;;;20.64;33.59;96075.72;6088434;28;109192;-65
2023/01/25 03:01:32;;;;;;;1.40;1.30;;;;;;;20.63;33.58;96084.75;6076988;28;109189;-65
2023/01/25 03:04:35;;;;;;;1.70;1.60;;;;;;;20.60;33.24;96082.66;6087744;28;109056;-65
2023/01/25 03:07:38;;;;;;;1.60;1.43;;;;;;;20.55;33.33;96066.72;6083307;28;109165;-65
2023/01/25 03:10:41;;;;;;;1.83;1.50;;;;;;;20.60;33.46;96088.75;6089312;28;109084;-65
2023/01/25 03:13:46;;;;;;;1.93;1.40;;;;;;;20.62;33.17;96091.16;6072017;28;111302;-65
2023/01/25 03:16:49;;;;;;;1.90;1.40;;;;;;;20.61;33.41;96082.38;6091661;28;108789;-65
2023/01/25 03:19:52;;;;;;;1.50;1.37;;;;;;;20.63;33.20;96087.41;6089201;28;109199;-65
2023/01/25 03:22:55;;;;;;;1.50;1.40;;;;;;;20.66;33.25;96083.41;6087246;28;111205;-65
2023/01/25 03:26:09;;;;;;;1.60;1.50;;;;;;;20.61;33.16;96081.56;6085780;28;110206;-65
2023/01/25 03:29:16;;;;;;;1.30;1.20;;;;;;;20.62;33.60;96072.53;6091006;28;109891;-65
2023/01/25 03:32:19;;;;;;;1.47;1.37;;;;;;;20.62;33.50;96083.16;6090598;28;109655;-65
2023/01/25 03:35:22;;;;;;;1.80;1.53;;;;;;;20.61;33.61;96070.94;6081150;28;109445;-65
2023/01/25 03:38:25;;;;;;;1.37;1.27;;;;;;;20.62;33.87;96075.19;6091317;28;109750;-65
2023/01/25 03:41:29;;;;;;;1.30;1.20;;;;;;;20.61;33.56;96082.38;6091164;28;109633;-65
2023/01/25 03:44:33;;;;;;;1.70;1.60;;;;;;;20.60;33.74;96072.00;6089782;28;110675;-65
2023/01/25 03:47:36;;;;;;;1.53;1.43;;;;;;;20.61;33.58;96073.59;6079434;28;108812;-65
2023/01/25 03:50:39;;;;;;;1.40;1.30;;;;;;;20.64;33.70;96070.41;6080690;28;108810;-65
2023/01/25 03:53:42;;;;;;;1.40;1.30;;;;;;;20.65;33.46;96065.88;6090850;28;110284;-65
2023/01/25 03:56:45;;;;;;;1.40;1.30;;;;;;;20.69;33.46;96070.41;6083538;28;108939;-61
2023/01/25 03:59:49;;;;;;;0.93;0.90;;;;;;;20.79;33.48;96072.22;6084660;28;109268;-60
2023/01/25 04:02:52;;;;;;;1.50;1.40;;;;;;;20.86;33.17;96068.22;6090635;28;110512;-61
2023/01/25 04:05:59;;;;;;;1.70;1.60;;;;;;;20.90;32.86;96063.94;6090076;28;110076;-61
2023/01/25 04:09:05;;;;;;;1.30;1.20;;;;;;;20.91;33.14;96060.19;6078065;28;110250;-60
2023/01/25 04:12:08;;;;;;;1.77;1.67;;;;;;;20.93;32.86;96068.69;6090802;28;109607;-61
2023/01/25 04:15:13;;;;;;;1.40;1.30;;;;;;;20.90;33.07;96069.25;6079863;28;108822;-61
2023/01/25 04:18:16;;;;;;;1.40;1.30;;;;;;;20.89;32.68;96059.69;6089591;28;109049;-61
2023/01/25 04:21:22;;;;;;;1.60;1.50;;;;;;;20.90;32.86;96069.25;6078055;28;109400;-61
2023/01/25 04:24:27;;;;;;;1.40;1.30;;;;;;;20.90;32.70;96061.28;6085513;28;108836;-61
2023/01/25 04:27:30;;;;;;;1.30;1.20;;;;;;;20.89;32.67;96062.34;6089787;28;109157;-61
2023/01/25 04:30:34;;;;;;;1.10;1.00;;;;;;;20.88;32.79;96062.59;6088366;28;110184;-60
2023/01/25 04:33:37;;;;;;;1.30;1.20;;;;;;;20.80;33.03;96061.28;6082530;28;109646;-62
2023/01/25 04:36:41;;;;;;;1.53;1.40;;;;;;;20.75;32.93;96058.66;6090709;28;110374;-61
2023/01/25 04:39:46;;;;;;;1.87;1.40;;;;;;;20.78;32.95;96071.41;6088282;28;109445;-61
2023/01/25 04:42:49;;;;;;;1.60;1.50;;;;;;;20.52;33.12;96036.16;6090088;28;110320;-61
2023/01/25 04:45:53;;;;;;;1.83;1.73;;;;;;;20.78;32.88;96078.59;6094494;28;109368;-60
2023/01/25 04:48:59;;;;;;;1.30;1.20;;;;;;;20.75;32.94;96079.94;6114250;28;109169;-60
2023/01/25 04:52:02;;;;;;;2.57;1.33;;;;;;;20.74;32.85;96073.03;6093205;28;109274;-65
2023/01/25 04:55:08;;;;;;;1.67;1.57;;;;;;;20.78;33.25;96073.28;6076123;28;109074;-64
2023/01/25 04:58:12;;;;;;;2.73;2.40;;;;;;;20.79;33.44;96073.00;6089269;28;109359;-64
2023/01/25 05:01:18;;;;;;;2.30;2.10;;;;;;;20.78;33.95;96079.41;6087363;28;109199;-64
2023/01/25 05:04:23;;;;;;;2.17;1.93;;;;;;;20.78;34.13;96079.41;6088369;28;109168;-65
2023/01/25 05:07:26;;;;;;;2.90;1.90;;;;;;;20.65;33.94;96060.56;6078664;28;109263;-65
2023/01/25 05:10:29;;;;;;;3.60;2.23;;;;;;;20.74;33.98;96061.59;6089400;28;110328;-65
2023/01/25 05:13:34;;;;;;;3.80;2.33;;;;;;;20.78;33.35;96070.63;6089620;28;109364;-66
2023/01/25 05:16:39;;;;;;;4.50;2.47;;;;;;;20.73;33.70;96057.34;6080605;28;109053;-65
2023/01/25 05:19:42;;;;;;;4.50;2.10;;;;;;;20.85;33.73;96057.84;6087003;28;108968;-65
2023/01/25 05:22:45;;;;;;;2.43;1.90;;;;;;;20.85;33.69;96057.84;6089409;28;109155;-66
2023/01/25 05:29:09;;;;;;;4.60;3.30;;;;;;;20.86;34.56;96056.78;6078491;28;109101;-66
2023/01/25 05:32:17;;;;;;;5.07;2.93;;;;;;;20.79;34.50;96051.72;6071322;28;108836;-65
2023/01/25 05:35:21;;;;;;;3.73;3.00;;;;;;;20.87;34.67;96067.13;6065558;28;109082;-66
2023/01/25 05:38:24;;;;;;;3.73;3.43;;;;;;;20.85;34.54;96063.16;6064630;28;109249;-65
2023/01/25 05:41:27;;;;;;;4.00;3.60;;;;;;;20.81;34.59;96064.75;6055444;28;110248;-65
2023/01/25 05:44:30;;;;;;;4.87;4.47;;;;;;;20.79;34.39;96062.38;6065285;28;109096;-65
2023/01/25 05:47:34;;;;;;;6.90;5.30;;;;;;;20.77;34.30;96067.16;6064575;28;109585;-65
2023/01/25 05:50:37;;;;;;;6.57;5.97;;;;;;;20.78;34.36;96071.41;6059805;28;109083;-64
2023/01/25 05:53:40;;;;;;;6.73;6.13;;;;;;;20.78;34.26;96074.06;6059995;28;109509;-65
2023/01/25 05:56:48;;;;;;;6.50;5.90;;;;;;;20.75;34.28;96063.19;6065236;28;109029;-65
2023/01/25 05:59:51;;;;;;;6.73;6.23;;;;;;;20.66;34.14;96057.63;6065130;28;109132;-65
2023/01/25 06:02:59;;;;;;;7.43;6.73;;;;;;;20.74;34.24;96070.38;6054547;28;109154;-65
2023/01/25 06:06:03;;;;;;;8.40;7.70;;;;;;;20.74;34.30;96062.41;6065100;28;110344;-65
2023/01/25 06:09:11;;;;;;;8.63;7.83;;;;;;;20.74;34.39;96067.72;6065285;28;110070;-65
2023/01/25 06:12:14;;;;;;;9.20;8.50;;;;;;;20.74;34.33;96069.56;6064927;28;109027;-66
2023/01/25 06:15:18;;;;;;;9.67;8.87;;;;;;;20.74;34.46;96074.91;6054032;28;109296;-65
2023/01/25 06:18:23;;;;;;;10.10;9.10;;;;;;;20.71;34.28;96081.56;6064052;28;109137;-65
2023/01/25 06:21:26;;;;;;;8.97;8.03;;;;;;;20.67;34.36;96085.84;6064818;28;109665;-66
2023/01/25 06:24:29;;;;;;;9.77;8.87;;;;;;;20.72;34.28;96083.16;6059483;28;109493;-65
2023/01/25 06:27:32;;;;;;;9.87;8.80;;;;;;;20.73;34.36;96087.41;6058873;28;109146;-65
2023/01/25 06:30:38;;;;;;;10.60;9.57;;;;;;;20.71;35.71;96081.56;6064157;28;109663;-65
2023/01/25 06:33:50;;;;;;;12.10;9.30;;;;;;;20.71;37.56;96097.50;6064469;28;110029;-65
2023/01/25 06:36:53;;;;;;;12.70;9.70;;;;;;;20.73;38.42;96084.75;6054417;28;110215;-65
2023/01/25 06:39:59;;;;;;;10.60;9.43;;;;;;;20.72;38.99;96083.16;6065245;28;109052;-65
2023/01/25 06:43:06;;;;;;;10.50;9.50;;;;;;;20.73;39.58;96078.63;6068558;28;109025;-65
2023/01/25 06:46:11;;;;;;;9.97;9.03;;;;;;;20.71;39.43;96078.91;6068681;28;109639;-66
2023/01/25 06:49:16;;;;;;;10.50;9.40;;;;;;;20.73;39.67;96086.59;6056837;28;109019;-61
2023/01/25 06:52:26;;;;;;;10.87;9.80;;;;;;;20.71;38.81;96078.09;6068488;28;109065;-61
2023/01/25 06:55:30;;;;;;;10.17;9.13;;;;;;;20.72;38.35;96088.47;6068413;28;109161;-61
2023/01/25 06:58:34;;;;;;;9.77;8.87;;;;;;;20.71;37.87;96076.25;6063477;28;108986;-61
2023/01/25 07:01:40;;;;;;;9.53;8.37;;;;;;;20.70;37.50;96081.84;6062814;28;110098;-61
2023/01/25 07:04:44;;;;;;;8.60;7.67;;;;;;;20.71;37.26;96097.50;6068163;28;109058;-61
2023/01/25 07:07:49;;;;;;;8.83;7.80;;;;;;;20.71;36.99;96081.56;6068241;28;109063;-61
2023/01/25 07:10:56;;;;;;;10.53;7.90;;;;;;;20.70;36.87;96082.63;6057475;28;109068;-61
2023/01/25 07:14:00;;;;;;;8.73;7.67;;;;;;;20.67;36.43;96077.03;6068202;28;110462;-61
2023/01/25 07:17:03;;;;;;;8.43;7.57;;;;;;;20.68;36.67;96076.78;6068445;28;109192;-61
2023/01/25 07:20:09;;;;;;;9.60;8.50;;;;;;;20.71;36.17;96080.75;6067250;28;109464;-61
2023/01/25 07:23:12;;;;;;;8.40;7.13;;;;;;;20.69;36.24;96081.03;6057663;28;110965;-61
2023/01/25 07:26:17;;;;;;;7.50;6.70;;;;;;;20.69;36.03;96082.91;6068033;28;109868;-61
2023/01/25 07:29:20;;;;;;;7.57;6.83;;;;;;;20.68;35.79;96087.44;6068121;28;110779;-61
2023/01/25 07:32:23;;;;;;;7.63;6.83;;;;;;;20.69;35.67;96096.19;6063922;28;109169;-61
2023/01/25 07:35:28;;;;;;;7.10;6.43;;;;;;;20.69;35.56;96094.34;6062518;28;110531;-61
2023/01/25 07:38:31;;;;;;;7.03;6.43;;;;;;;20.58;35.30;96077.59;6067489;28;109164;-61
2023/01/25 07:41:34;;;;;;;7.33;6.70;;;;;;;20.68;35.46;96092.75;6067833;28;110420;-61
2023/01/25 07:44:37;;;;;;;7.50;6.40;;;;;;;20.68;35.17;96086.63;6057222;28;109395;-61
2023/01/25 07:47:42;;;;;;;7.37;6.13;;;;;;;20.67;35.12;96096.47;6067390;28;109843;-61
2023/01/25 07:51:10;;;;;;;6.90;5.97;;;;;;;20.68;34.97;96102.59;6066723;28;110023;-61
2023/01/25 07:54:14;;;;;;;7.20;6.47;;;;;;;20.67;34.95;96096.47;6067162;28;109055;-61
2023/01/25 07:57:17;;;;;;;7.20;6.50;;;;;;;20.67;34.70;96101.78;6056615;28;109248;-61
2023/01/25 08:00:20;;;;;;;6.57;5.33;;;;;;;20.66;34.70;96102.84;6067186;28;109154;-61
2023/01/25 08:03:26;;;;;;;5.97;5.47;;;;;;;20.67;34.65;96100.97;6067099;28;109111;-61
2023/01/25 08:06:34;;;;;;;6.00;5.40;;;;;;;20.65;34.39;96093.25;6063747;28;110381;-62
2023/01/25 08:09:38;;;;;;;5.53;5.03;;;;;;;20.67;34.45;96096.47;6062708;28;112740;-61
2023/01/25 08:12:45;;;;;;;5.53;4.73;;;;;;;20.66;34.34;96084.22;6067568;28;110070;-61
2023/01/25 08:15:53;;;;;;;5.87;5.37;;;;;;;20.68;34.46;96083.97;6067025;28;109320;-61
2023/01/25 08:18:58;;;;;;;5.50;5.00;;;;;;;20.67;34.37;96083.19;6056214;28;109417;-61
2023/01/25 08:22:03;;;;;;;5.27;4.77;;;;;;;20.62;34.01;96083.97;6066212;28;109075;-61
2023/01/25 08:25:09;;;;;;;5.70;5.20;;;;;;;20.68;34.36;96083.97;6066692;28;109389;-60
2023/01/25 08:28:14;;;;;;;5.57;4.60;;;;;;;20.66;33.96;96078.91;6066746;28;109919;-60
2023/01/25 08:31:19;;;;;;;5.33;4.83;;;;;;;20.70;34.17;96085.28;6055883;28;109296;-61
2023/01/25 08:34:23;;;;;;;5.00;4.60;;;;;;;20.71;33.86;96088.75;6066253;28;109065;-61
2023/01/25 08:37:28;;;;;;;4.90;4.50;;;;;;;20.69;34.04;96083.69;6066544;28;109082;-61
2023/01/25 08:40:31;;;;;;;5.10;4.60;;;;;;;20.71;33.86;96080.75;6064672;28;108884;-60
2023/01/25 08:43:39;;;;;;;5.63;4.37;;;;;;;20.69;33.79;96078.38;6060317;28;110053;-60
2023/01/25 08:46:42;;;;;;;4.73;4.23;;;;;;;20.69;33.63;96078.38;6066747;28;109305;-61
2023/01/25 08:49:45;;;;;;;4.47;3.83;;;;;;;20.70;33.87;96072.00;6066387;28;110136;-61
2023/01/25 08:52:49;;;;;;;4.83;4.10;;;;;;;20.69;33.64;96075.72;6055351;28;109037;-61
2023/01/25 08:55:56;;;;;;;5.63;4.77;;;;;;;20.70;33.61;96073.84;6066010;28;109218;-61
2023/01/25 08:59:00;;;;;;;3.80;3.50;;;;;;;20.71;33.60;96080.75;6066131;28;109054;-60
2023/01/25 09:02:03;;;;;;;4.37;3.97;;;;;;;20.72;33.67;96077.03;6066355;28;109304;-61
2023/01/25 09:05:07;;;;;;;4.30;3.90;;;;;;;20.72;33.85;96077.84;6055364;28;110088;-61
2023/01/25 09:08:12;;;;;;;4.53;4.13;;;;;;;20.63;33.78;96071.47;6065867;28;109264;-61
2023/01/25 09:11:17;;;;;;;4.30;3.90;;;;;;;20.71;33.61;96072.78;6066097;28;109173;-62
2023/01/25 09:14:20;;;;;;;4.70;3.90;;;;;;;20.71;33.60;96073.59;6066139;28;109429;-62
2023/01/25 09:17:23;;;;;;;4.87;4.07;;;;;;;20.72;33.68;96061.06;6055279;28;109568;-61
2023/01/25 09:20:27;;;;;;;4.30;3.90;;;;;;;20.71;33.40;96060.28;6065969;28;109249;-62
2023/01/25 09:23:37;;;;;;;3.90;3.60;;;;;;;20.71;33.29;96054.97;6065023;28;108821;-62
2023/01/25 09:26:53;;;;;;;4.00;3.63;;;;;;;20.70;33.55;96058.69;6055353;28;108972;-62
2023/01/25 09:30:02;;;;;;;3.90;3.23;;;;;;;20.67;33.53;96053.91;6065530;28;109212;-60
2023/01/25 09:33:06;;;;;;;4.00;3.63;;;;;;;20.62;33.55;96040.63;6065328;28;109325;-60
2023/01/25 09:36:10;;;;;;;4.03;3.67;;;;;;;20.71;33.50;96054.16;6065594;28;109247;-60
2023/01/25 09:39:14;;;;;;;3.93;3.63;;;;;;;20.69;33.35;96035.81;6055022;28;109143;-61
2023/01/25 09:42:34;;;;;;;3.70;3.40;;;;;;;20.70;33.23;96034.75;6065137;28;109167;-60
2023/01/25 09:45:37;;;;;;;3.80;3.40;;;;;;;20.60;33.36;96019.63;6065783;28;109435;-60
2023/01/25 09:48:49;;;;;;;3.60;3.30;;;;;;;20.69;33.50;96027.06;6063835;28;109140;-62
2023/01/25 09:52:27;;;;;;;3.47;3.17;;;;;;;20.69;33.32;96014.53;6060066;28;110161;-60
2023/01/25 09:55:37;;;;;;;3.83;3.53;;;;;;;20.69;33.29;96014.53;6064869;28;109839;-60
2023/01/25 09:58:45;;;;;;;3.30;3.00;;;;;;;20.71;33.31;96012.41;6065339;28;110130;-60
2023/01/25 10:01:53;;;;;;;3.30;3.00;;;;;;;20.71;33.34;96001.78;6054367;28;109386;-61
2023/01/25 10:05:02;;;;;;;3.63;3.33;;;;;;;20.71;33.17;95996.44;6065083;28;109134;-61
2023/01/25 10:08:13;;;;;;;2.90;2.70;;;;;;;20.73;33.23;95993.50;6065381;28;110416;-60
2023/01/25 10:11:23;;;;;;;2.70;2.50;;;;;;;20.69;33.19;95987.94;6065041;28;108769;-61
2023/01/25 10:14:26;;;;;;;3.17;2.93;;;;;;;20.70;33.07;95986.88;6056422;28;109242;-61
2023/01/25 10:17:35;;;;;;;2.97;2.77;;;;;;;20.64;33.34;95964.03;6064913;28;109091;-61
2023/01/25 10:20:45;;;;;;;3.07;2.77;;;;;;;20.63;33.39;95962.44;6064828;28;109119;-61
2023/01/25 10:24:13;;;;;;;3.20;2.77;;;;;;;20.70;33.11;95965.59;6054934;28;109792;-62
2023/01/25 10:27:29;;;;;;;3.37;3.00;;;;;;;20.70;32.97;95962.94;6063642;28;109233;-61
2023/01/25 10:30:38;;;;;;;3.20;3.00;;;;;;;20.69;32.85;95961.34;6064701;28;110027;-60
2023/01/25 10:33:44;;;;;;;3.43;2.97;;;;;;;20.46;33.10;95917.56;6064467;28;109058;-61
2023/01/25 10:36:54;;;;;;;3.00;2.80;;;;;;;20.72;33.09;95955.47;6054973;28;109298;-60
2023/01/25 10:40:02;;;;;;;2.93;2.73;;;;;;;20.73;33.30;95953.63;6064444;28;109303;-60
2023/01/25 10:43:15;;;;;;;2.90;2.70;;;;;;;20.73;33.16;95950.97;6064373;28;109222;-60
2023/01/25 10:46:23;;;;;;;2.97;2.77;;;;;;;20.72;32.89;95950.16;6054455;28;109171;-61
2023/01/25 10:49:34;;;;;;;2.90;2.70;;;;;;;20.71;32.99;95932.63;6064499;28;109471;-60
2023/01/25 10:52:39;;;;;;;3.00;2.80;;;;;;;20.73;32.90;95935.00;6064134;28;109033;-60
2023/01/25 10:55:55;;;;;;;2.60;2.40;;;;;;;20.71;32.93;95927.31;6064277;28;109572;-60
2023/01/25 10:59:15;;;;;;;3.30;3.00;;;;;;;20.70;33.19;95908.97;6054609;28;109818;-61
2023/01/25 11:02:36;;;;;;;3.13;2.90;;;;;;;20.84;33.04;95917.91;6064451;28;109350;-61
2023/01/25 11:05:42;;;;;;;3.50;3.27;;;;;;;20.75;33.24;95903.59;6064316;28;109365;-61
2023/01/25 11:08:47;;;;;;;2.70;2.50;;;;;;;20.91;33.02;95916.53;6058198;28;109206;-60
2023/01/25 11:11:55;;;;;;;2.80;2.60;;;;;;;20.78;33.44;95903.84;6059461;28;110084;-65
2023/01/25 11:15:25;;;;;;;5.20;3.30;;;;;;;20.76;33.24;95907.84;6064084;28;108984;-65
2023/01/25 11:18:32;;;;;;;3.00;2.70;;;;;;;20.76;33.74;95905.19;6063715;28;109047;-61
2023/01/25 11:21:35;;;;;;;2.80;2.60;;;;;;;20.75;33.74;95904.38;6053236;28;109184;-61
2023/01/25 11:24:38;;;;;;;2.80;2.60;;;;;;;20.43;33.54;95850.88;6063658;28;109173;-62
2023/01/25 11:27:41;;;;;;;2.83;2.63;;;;;;;20.75;33.61;95896.41;6066733;28;110206;-61
2023/01/25 11:30:47;;;;;;;2.97;2.77;;;;;;;20.73;33.77;95893.25;6066870;28;109720;-61
2023/01/25 11:33:50;;;;;;;2.90;2.60;;;;;;;20.76;33.43;95892.69;6057218;28;109534;-61
2023/01/25 11:37:22;;;;;;;3.07;2.87;;;;;;;20.77;33.36;95896.13;6067863;28;109637;-62
2023/01/25 11:40:37;;;;;;;2.30;2.10;;;;;;;20.68;33.25;95873.88;6067542;28;109096;-61
2023/01/25 11:44:06;;;;;;;2.60;2.40;;;;;;;20.69;33.35;95865.59;6057645;28;109858;-61
2023/01/25 11:47:27;;;;;;;2.87;2.63;;;;;;;20.76;33.51;95867.94;6067488;28;109317;-61
2023/01/25 11:50:37;;;;;;;3.07;2.80;;;;;;;20.68;33.10;95852.59;6067825;28;109410;-61
2023/01/25 11:53:59;;;;;;;2.67;2.47;;;;;;;20.75;32.99;95853.84;6065932;28;110151;-61
2023/01/25 11:57:21;;;;;;;3.00;2.70;;;;;;;20.75;33.02;95842.44;6061897;28;110109;-61
2023/01/25 12:00:41;;;;;;;2.37;2.20;;;;;;;20.74;33.11;95844.28;6067675;28;108782;-61
2023/01/25 12:04:11;;;;;;;2.93;2.73;;;;;;;20.75;33.16;95847.75;6066599;28;108982;-60
2023/01/25 12:07:22;;;;;;;3.00;2.80;;;;;;;20.75;32.87;95842.44;6057384;28;110025;-61
2023/01/25 12:10:34;;;;;;;2.97;2.77;;;;;;;20.75;33.04;95837.91;6067440;28;109626;-60
2023/01/25 12:13:46;;;;;;;2.50;2.30;;;;;;;20.67;33.03;95829.69;6067223;28;109060;-60
2023/01/25 12:17:01;;;;;;;2.10;2.00;;;;;;;20.76;33.06;95833.38;6062214;28;109335;-60
2023/01/25 12:20:35;;;;;;;2.87;2.67;;;;;;;20.75;33.02;95829.91;6064416;28;109169;-60
2023/01/25 12:24:01;;;;;;;2.50;2.30;;;;;;;20.74;32.98;95836.31;6066905;28;109117;-60
2023/01/25 12:27:14;;;;;;;3.93;2.60;;;;;;;20.74;32.93;95831.00;6066983;28;109021;-61
2023/01/25 12:30:25;;;;;;;2.27;2.07;;;;;;;20.73;32.82;95834.72;6056462;28;108946;-61
2023/01/25 12:33:35;;;;;;;2.20;2.10;;;;;;;20.70;32.89;95819.31;6066407;28;108973;-61
2023/01/25 12:36:45;;;;;;;2.40;2.20;;;;;;;20.73;32.89;95821.44;6066171;28;110095;-61
2023/01/25 12:39:52;;;;;;;2.07;1.97;;;;;;;20.62;32.65;95806.59;6058305;28;111271;-61
2023/01/25 12:43:00;;;;;;;1.90;1.80;;;;;;;20.73;32.78;95826.75;6066013;28;109208;-62
2023/01/25 12:46:13;;;;;;;2.10;1.97;;;;;;;20.72;32.70;95817.19;6066768;28;110075;-61
2023/01/25 12:49:24;;;;;;;2.27;2.07;;;;;;;20.73;32.76;95812.66;6066599;28;109195;-61
2023/01/25 12:52:37;;;;;;;2.43;2.23;;;;;;;20.69;32.80;95811.63;6055535;28;109880;-62
2023/01/25 12:55:40;;;;;;;2.47;2.27;;;;;;;20.72;32.67;95817.19;6066737;28;110093;-61
2023/01/25 12:58:50;;;;;;;2.47;2.27;;;;;;;20.71;32.67;95810.28;6066386;28;109227;-60
2023/01/25 13:01:58;;;;;;;2.83;2.20;;;;;;;20.70;32.86;95808.69;6063154;28;109272;-62
2023/01/25 13:05:12;;;;;;;2.67;2.47;;;;;;;20.71;32.53;95799.63;6060108;28;109338;-61
2023/01/25 13:08:35;;;;;;;2.17;2.00;;;;;;;20.64;32.63;95791.16;6065542;28;109253;-61
2023/01/25 13:11:40;;;;;;;2.47;2.27;;;;;;;20.71;32.64;95799.63;6066017;28;108908;-61
2023/01/25 13:14:43;;;;;;;2.40;2.20;;;;;;;20.65;32.71;95773.34;6055396;28;109079;-61
2023/01/25 13:17:46;;;;;;;2.00;1.90;;;;;;;20.83;32.44;95788.63;6066160;28;109703;-61
2023/01/25 13:20:52;;;;;;;2.57;2.37;;;;;;;20.87;33.26;95787.81;6066177;28;110245;-61
2023/01/25 13:24:19;;;;;;;2.20;2.00;;;;;;;20.90;32.93;95781.13;6066017;28;109480;-61
2023/01/25 13:27:27;;;;;;;2.13;1.93;;;;;;;20.89;32.88;95783.00;6054861;28;109046;-61
2023/01/25 13:30:32;;;;;;;2.43;2.23;;;;;;;20.92;33.17;95777.09;6065640;28;109007;-61
2023/01/25 13:33:36;;;;;;;2.30;2.13;;;;;;;20.88;33.12;95772.63;6065240;28;109333;-61
2023/01/25 13:36:47;;;;;;;2.40;2.20;;;;;;;20.96;33.24;95789.84;6056038;28;110171;-62
2023/01/25 13:39:53;;;;;;;2.07;1.97;;;;;;;20.95;32.96;95793.59;6064351;28;109653;-61
2023/01/25 13:43:02;;;;;;;2.07;1.87;;;;;;;20.98;33.74;95798.34;6066220;28;109175;-61
2023/01/25 13:46:08;;;;;;;2.40;2.20;;;;;;;20.98;33.37;95790.34;6065577;28;109214;-62
2023/01/25 13:49:22;;;;;;;3.53;2.50;;;;;;;21.00;33.63;95799.63;6054335;28;108979;-61
2023/01/25 13:52:29;;;;;;;2.80;2.60;;;;;;;21.00;33.52;95791.66;6065592;28;110192;-62
2023/01/25 13:55:41;;;;;;;2.50;2.30;;;;;;;20.92;33.15;95795.72;6065594;28;109315;-62
2023/01/25 13:58:46;;;;;;;2.40;2.20;;;;;;;20.84;33.38;95793.69;6061634;28;108871;-61
2023/01/25 14:01:51;;;;;;;2.50;2.30;;;;;;;20.83;33.15;95793.94;6060327;28;109246;-66
2023/01/25 14:04:55;;;;;;;2.37;2.27;;;;;;;20.73;33.08;95784.19;6065451;28;110193;-62
2023/01/25 14:08:01;;;;;;;1.90;1.80;;;;;;;20.80;33.02;95797.94;6065209;28;109049;-62
2023/01/25 14:11:06;;;;;;;1.90;1.80;;;;;;;20.78;33.11;95794.78;6054275;28;110748;-62
2023/01/25 14:14:19;;;;;;;2.10;2.00;;;;;;;20.77;33.13;95793.19;6064905;28;109103;-62
2023/01/25 14:17:23;;;;;;;2.53;2.33;;;;;;;20.76;32.98;95796.94;6065187;28;110356;-62
2023/01/25 14:20:26;;;;;;;2.60;2.40;;;;;;;20.75;33.00;95791.88;6064826;28;109041;-62
2023/01/25 14:23:31;;;;;;;2.20;2.00;;;;;;;20.73;33.05;95789.50;6055776;28;110254;-62
2023/01/25 14:26:38;;;;;;;2.50;2.30;;;;;;;20.73;32.91;95784.19;6064703;28;109406;-61
2023/01/25 14:29:48;;;;;;;3.20;2.60;;;;;;;20.75;32.95;95783.91;6064685;28;109317;-61
2023/01/25 14:32:53;;;;;;;2.50;2.40;;;;;;;20.73;32.89;95780.75;6059399;28;109407;-62